Neotsu, OR (97364)

4:30 PM PST on November 24, 2014 (GMT -0800)
Coronado Shores Beach Club | Change Station
CLOSE
Current Station
Personal Weather Station
Location: Gleneden Beach, OR
Elevation: 72 ft
Nearby Weather Stations

Elev 72 ft 44.87 °N, 124.04 °W | Updated 12 minutes ago

Overcast
Overcast
54.4 °F
Feels Like 54.4 °F
N
6.0
Wind Variable Wind from South
Gusts 13.0 mph

Today
High -- | Low -- °F
--% Chance of Precip.
Yesterday
High -- | Low -- °F
Precip. -- in
7:25 AM 4:39 PM
Waxing Crescent, 8% visible
Pressure 30.31 in
Visibility 5.0 miles
Clouds Overcast 1500 ft
Dew Point 51 °F
Humidity 88%
Rainfall 0.00 in
Snow Depth Not available.
UV 0.0 out of 12
Pollen .10 out of 12
Air Quality Not available.
Flu Activity Not available.
METAR KONP 250015Z AUTO 19016G23KT 5SM BR OVC015 12/10 A3031 RMK AO2

More Conditions Fewer Conditions

Pressure 30.31 in
Visibility 5.0 miles
Clouds Overcast 1500 ft
Dew Point 51 °F
Humidity 88%
Rainfall 0.00 in
Snow Depth Not available.
UV 0.0 out of 12
Pollen .10 out of 12
Air Quality Not available.
Flu Activity Not available.
METAR KONP 250015Z AUTO 19016G23KT 5SM BR OVC015 12/10 A3031 RMK AO2

More Conditions Fewer Conditions

10-Day Weather Forecast

Almanac

Astronomy

Nov. 24, 2014 Rise Set
Actual Time
Civil Twilight
Nautical Twilight
Astronomical Twilight
Moon
Length of Visible Light
Length of Day
Tomorrow will be .
, % of the Moon is Illuminated

Today's Extremes

State Highs State Lows

Community

WunderPhotos

Upload Photos

1,773,442 photos uploaded!

WunderBlogs® & News

Nearby

Air Quality

  Air Quality AQ Index Pollutant
Not available.

Snow Depth

Station Depth Elevation

Earthquake Activity

City Distance Mag. Time & Date
Minimum magnitude displayed is 2.5.

Coastal Water Temperatures

Place Temperature

Nearby Weather Stations